Time;durP1;ratioP1;P1;durP2;ratioP2;P2;SDS_P1;SDS_P2;PMS_P1;PMS_P2;Temp;Humidity;BMP_temperature;BMP_pressure;BME280_temperature;BME280_humidity;BME280_pressure;Samples;Min_cycle;Max_cycle;Signal;HPM_P1;HPM_P2
2021/03/09 00:01:33;;;;;;;44.80;27.97;;;4.30;99.90;;;;;;5035759;28;20220;-76
2021/03/09 00:03:58;;;;;;;44.55;26.70;;;4.20;99.90;;;;;;5034402;28;20284;-76
2021/03/09 00:06:24;;;;;;;50.10;27.43;;;4.20;99.90;;;;;;5035930;28;20212;-77
2021/03/09 00:08:49;;;;;;;46.20;26.23;;;4.20;99.90;;;;;;5036047;28;20176;-77
2021/03/09 00:11:15;;;;;;;48.70;26.43;;;4.20;99.90;;;;;;5035669;28;20174;-75
2021/03/09 00:13:41;;;;;;;49.00;28.33;;;4.30;99.90;;;;;;5035263;28;20202;-75
2021/03/09 00:16:06;;;;;;;48.47;29.90;;;4.30;99.90;;;;;;5035742;28;20171;-77
2021/03/09 00:18:32;;;;;;;44.33;27.60;;;4.30;99.90;;;;;;5035668;28;20186;-74
2021/03/09 00:20:58;;;;;;;54.70;29.03;;;4.20;99.90;;;;;;5035609;28;20503;-75
2021/03/09 00:23:23;;;;;;;52.00;27.63;;;4.20;99.90;;;;;;5035057;28;20181;-77
2021/03/09 00:25:49;;;;;;;46.23;27.33;;;4.00;99.90;;;;;;5035532;28;20206;-78
2021/03/09 00:28:22;;;;;;;51.33;28.80;;;4.10;99.90;;;;;;5035540;28;20592;-77
2021/03/09 00:30:49;;;;;;;50.35;27.75;;;4.00;99.90;;;;;;5035459;28;20178;-77
2021/03/09 00:33:14;;;;;;;54.50;26.85;;;4.00;99.90;;;;;;5034983;28;20170;-77
2021/03/09 00:35:40;;;;;;;51.90;28.40;;;4.10;99.90;;;;;;5035091;28;20193;-77
2021/03/09 00:38:05;;;;;;;42.93;25.90;;;4.10;99.90;;;;;;5035308;28;20749;-79
2021/03/09 00:40:31;;;;;;;42.33;25.73;;;4.10;99.90;;;;;;5035265;28;20207;-76
2021/03/09 00:42:57;;;;;;;41.50;25.00;;;4.10;99.90;;;;;;5035070;28;20231;-78
2021/03/09 00:45:22;;;;;;;48.83;26.57;;;4.10;99.90;;;;;;5034669;28;20234;-77
2021/03/09 00:47:48;;;;;;;57.77;27.47;;;4.10;99.90;;;;;;5033699;28;20281;-76
2021/03/09 00:50:14;;;;;;;52.07;27.47;;;4.10;99.90;;;;;;5035190;28;20520;-78
2021/03/09 00:52:40;;;;;;;48.53;26.40;;;4.00;99.90;;;;;;5035015;28;20209;-76
2021/03/09 00:55:06;;;;;;;47.87;28.13;;;4.10;99.90;;;;;;5034594;28;20294;-77
2021/03/09 00:57:32;;;;;;;49.13;27.70;;;4.10;99.90;;;;;;5033596;28;20183;-76
2021/03/09 00:59:57;;;;;;;48.57;28.17;;;4.10;99.90;;;;;;5034819;28;20516;-77
2021/03/09 01:02:23;;;;;;;56.57;30.13;;;3.90;99.90;;;;;;5034733;28;20558;-76
2021/03/09 01:04:48;;;;;;;49.23;28.30;;;3.90;99.90;;;;;;5034379;28;20194;-75
2021/03/09 01:07:14;;;;;;;52.87;27.77;;;3.90;99.90;;;;;;5034947;28;20182;-76
2021/03/09 01:09:40;;;;;;;41.97;25.10;;;3.60;99.90;;;;;;5034669;28;20174;-75
2021/03/09 01:12:06;;;;;;;55.80;28.37;;;3.70;99.90;;;;;;5034610;28;20599;-75
2021/03/09 01:14:31;;;;;;;43.78;25.67;;;3.80;99.90;;;;;;5034069;28;20224;-75
2021/03/09 01:16:57;;;;;;;52.83;27.97;;;3.80;99.90;;;;;;5034607;28;20242;-77
2021/03/09 01:19:23;;;;;;;45.30;26.40;;;3.80;99.90;;;;;;5034626;28;20681;-76
2021/03/09 01:21:48;;;;;;;56.17;26.83;;;3.90;99.90;;;;;;5034267;28;20244;-76
2021/03/09 01:24:14;;;;;;;46.30;25.93;;;3.80;99.90;;;;;;5034044;28;20190;-76
2021/03/09 01:26:39;;;;;;;45.27;26.10;;;3.90;99.90;;;;;;5034719;28;20174;-77
2021/03/09 01:29:05;;;;;;;43.60;26.43;;;3.90;99.90;;;;;;5034383;28;20182;-76
2021/03/09 01:31:31;;;;;;;48.23;27.73;;;3.90;99.90;;;;;;5034421;28;20174;-74
2021/03/09 01:33:56;;;;;;;46.67;24.27;;;3.90;99.90;;;;;;5033605;28;20213;-76
2021/03/09 01:36:22;;;;;;;43.10;27.27;;;3.90;99.90;;;;;;5034352;28;20201;-76
2021/03/09 01:38:47;;;;;;;46.20;26.40;;;3.90;99.90;;;;;;5034036;28;20178;-75
2021/03/09 01:41:13;;;;;;;53.53;27.37;;;3.80;99.90;;;;;;5034172;28;20208;-77
2021/03/09 01:43:39;;;;;;;43.57;25.00;;;3.70;99.90;;;;;;5033720;28;20198;-76
2021/03/09 01:46:05;;;;;;;44.23;24.80;;;3.70;99.90;;;;;;5034125;28;20220;-75
2021/03/09 01:48:36;;;;;;;44.73;27.23;;;3.60;99.90;;;;;;5034039;28;20415;-75
2021/03/09 01:51:03;;;;;;;46.28;26.17;;;3.70;99.90;;;;;;5033955;28;20642;-77
2021/03/09 01:53:29;;;;;;;48.30;26.10;;;3.60;99.90;;;;;;5033531;28;20593;-75
2021/03/09 01:55:56;;;;;;;48.33;27.23;;;3.50;99.90;;;;;;5033816;28;20253;-77
2021/03/09 01:58:23;;;;;;;52.53;27.00;;;3.60;99.90;;;;;;5033643;28;20228;-75
2021/03/09 02:00:49;;;;;;;46.97;28.77;;;3.60;99.90;;;;;;5033675;28;20245;-77
2021/03/09 02:03:15;;;;;;;41.57;25.03;;;3.60;99.90;;;;;;5033579;28;20201;-77
2021/03/09 02:05:40;;;;;;;42.40;23.97;;;3.50;99.90;;;;;;5033851;28;20966;-75
2021/03/09 02:08:06;;;;;;;42.77;26.53;;;3.50;99.90;;;;;;5033714;28;20408;-76
2021/03/09 02:10:33;;;;;;;44.58;25.23;;;3.40;99.90;;;;;;5033632;28;20170;-77
2021/03/09 02:13:13;;;;;;;42.28;25.95;;;3.50;99.90;;;;;;5033497;28;20528;-75
2021/03/09 02:15:48;;;;;;;45.17;26.75;;;3.50;99.90;;;;;;5033726;28;20203;-75
2021/03/09 02:18:57;;;;;;;51.55;26.45;;;3.50;99.90;;;;;;5033523;28;20178;-75
2021/03/09 02:21:34;;;;;;;47.90;26.67;;;3.50;99.90;;;;;;5033740;28;20208;-76
2021/03/09 02:24:46;;;;;;;44.33;25.58;;;3.30;99.90;;;;;;5033220;28;20257;-76
2021/03/09 02:27:27;;;;;;;51.33;25.88;;;3.40;99.90;;;;;;5031418;28;20582;-77
2021/03/09 02:30:08;;;;;;;45.92;26.02;;;3.40;99.90;;;;;;5033414;28;20666;-75
2021/03/09 02:32:41;;;;;;;45.60;26.42;;;3.40;99.90;;;;;;5033275;28;20650;-75
2021/03/09 02:35:12;;;;;;;44.70;25.95;;;3.50;99.90;;;;;;5032804;28;20213;-76
2021/03/09 02:37:40;;;;;;;47.97;26.67;;;3.50;99.90;;;;;;5033507;28;20193;-75
2021/03/09 02:40:13;;;;;;;45.55;26.77;;;3.40;99.90;;;;;;5032094;28;20180;-77
2021/03/09 02:42:46;;;;;;;42.40;25.45;;;3.40;99.90;;;;;;5033137;28;20573;-76
2021/03/09 02:45:14;;;;;;;48.65;26.48;;;3.20;99.90;;;;;;5032866;28;20559;-75
2021/03/09 02:47:45;;;;;;;50.75;27.20;;;3.20;99.90;;;;;;5033177;28;20193;-76
2021/03/09 02:50:12;;;;;;;45.58;27.95;;;3.40;99.90;;;;;;5033219;28;20654;-75
2021/03/09 02:52:41;;;;;;;54.38;28.40;;;3.40;99.90;;;;;;5032988;28;20187;-76
2021/03/09 02:55:10;;;;;;;47.67;27.30;;;3.40;99.90;;;;;;5032756;28;20248;-75
2021/03/09 02:57:38;;;;;;;53.05;29.13;;;3.50;99.90;;;;;;5033108;28;20182;-75
2021/03/09 03:00:06;;;;;;;47.10;26.02;;;3.50;99.90;;;;;;5031741;28;20527;-75
2021/03/09 03:02:35;;;;;;;45.22;26.08;;;3.60;99.90;;;;;;5031476;28;20206;-76
2021/03/09 03:05:02;;;;;;;47.55;27.60;;;3.60;99.90;;;;;;5032628;28;20198;-76
2021/03/09 03:07:30;;;;;;;43.03;25.70;;;3.60;99.90;;;;;;5033004;28;20180;-75
2021/03/09 03:09:57;;;;;;;51.50;27.80;;;3.60;99.90;;;;;;5033131;28;20162;-76
2021/03/09 03:12:23;;;;;;;50.00;27.88;;;3.60;99.90;;;;;;5033059;28;20237;-75
2021/03/09 03:14:50;;;;;;;49.40;27.08;;;3.50;99.90;;;;;;5032557;28;20204;-75
2021/03/09 03:17:16;;;;;;;49.22;26.67;;;3.50;99.90;;;;;;5032866;28;20541;-75
2021/03/09 03:19:45;;;;;;;53.40;26.87;;;3.60;99.90;;;;;;5032949;28;20181;-75
2021/03/09 03:22:10;;;;;;;50.20;27.42;;;3.50;99.90;;;;;;5032793;28;20826;-75
2021/03/09 03:24:37;;;;;;;47.30;28.23;;;3.50;99.90;;;;;;5032455;28;20189;-76
2021/03/09 03:27:03;;;;;;;49.25;27.38;;;3.40;99.90;;;;;;5032817;28;20416;-75
2021/03/09 03:29:29;;;;;;;49.63;28.35;;;3.30;99.90;;;;;;5033000;28;20524;-75
2021/03/09 03:31:55;;;;;;;46.17;27.58;;;3.30;99.90;;;;;;5031406;28;20178;-74
2021/03/09 03:34:21;;;;;;;52.40;28.77;;;3.40;99.90;;;;;;5032284;28;20658;-75
2021/03/09 03:36:48;;;;;;;45.73;26.87;;;3.40;99.90;;;;;;5032893;28;20176;-76
2021/03/09 03:39:14;;;;;;;54.30;28.52;;;3.50;99.90;;;;;;5036537;28;20181;-76
2021/03/09 03:41:40;;;;;;;54.50;30.20;;;3.50;99.90;;;;;;5036318;28;20240;-75
2021/03/09 03:44:05;;;;;;;47.65;27.45;;;3.50;99.90;;;;;;5035941;28;20209;-75
2021/03/09 03:46:31;;;;;;;48.03;25.80;;;3.50;99.90;;;;;;5036361;28;20265;-75
2021/03/09 03:48:57;;;;;;;47.20;28.23;;;3.50;99.90;;;;;;5036083;28;20178;-76
2021/03/09 03:51:44;;;;;;;45.13;27.70;;;3.50;99.90;;;;;;5036223;28;20178;-76
2021/03/09 03:54:10;;;;;;;56.38;30.23;;;3.50;99.90;;;;;;5035930;28;20218;-76
2021/03/09 03:57:09;;;;;;;52.40;28.60;;;3.60;99.90;;;;;;5036188;28;20178;-76
2021/03/09 03:59:44;;;;;;;51.50;27.98;;;3.60;99.90;;;;;;5036036;28;20175;-76
2021/03/09 04:02:12;;;;;;;62.72;30.27;;;3.30;99.90;;;;;;5035995;28;20205;-76
2021/03/09 04:04:39;;;;;;;57.33;32.08;;;3.40;99.90;;;;;;5035603;28;20269;-76
2021/03/09 04:07:06;;;;;;;56.58;29.60;;;3.40;99.90;;;;;;5035917;28;20170;-75
2021/03/09 04:09:32;;;;;;;55.55;29.38;;;3.40;99.90;;;;;;5035951;28;20170;-76
2021/03/09 04:12:00;;;;;;;59.65;29.85;;;3.40;99.90;;;;;;5035827;28;20244;-76
2021/03/09 04:14:25;;;;;;;53.25;29.98;;;3.50;99.90;;;;;;5035435;28;20194;-75
2021/03/09 04:16:54;;;;;;;62.70;31.33;;;3.40;99.90;;;;;;5035767;28;20213;-75
2021/03/09 04:19:22;;;;;;;57.25;30.23;;;3.30;99.90;;;;;;5035841;28;20170;-75
2021/03/09 04:21:48;;;;;;;55.40;30.48;;;3.30;99.90;;;;;;5035757;28;20313;-76
2021/03/09 04:24:16;;;;;;;56.45;29.55;;;3.40;99.90;;;;;;5035429;28;20654;-76
2021/03/09 04:26:43;;;;;;;52.15;29.42;;;3.40;99.90;;;;;;5035787;28;20177;-75
2021/03/09 04:29:11;;;;;;;61.28;30.95;;;3.50;99.90;;;;;;5035464;28;20178;-75
2021/03/09 04:31:38;;;;;;;55.65;30.95;;;3.50;99.90;;;;;;5035374;28;20185;-76
2021/03/09 04:34:04;;;;;;;66.53;30.00;;;3.50;99.90;;;;;;5035081;28;20289;-75
2021/03/09 04:36:31;;;;;;;58.63;29.05;;;3.60;99.90;;;;;;5035409;28;20220;-75
2021/03/09 04:38:57;;;;;;;67.00;32.75;;;3.50;99.90;;;;;;5035348;28;20589;-75
2021/03/09 04:41:23;;;;;;;57.90;31.10;;;3.50;99.90;;;;;;5035240;28;20288;-75
2021/03/09 04:43:49;;;;;;;56.80;31.17;;;3.40;99.90;;;;;;5034775;28;20277;-76
2021/03/09 04:46:15;;;;;;;62.23;32.37;;;3.30;99.90;;;;;;5035378;28;20412;-75
2021/03/09 04:48:41;;;;;;;62.77;32.60;;;3.40;99.90;;;;;;5034415;28;20736;-75
2021/03/09 04:51:10;;;;;;;65.82;32.70;;;3.50;99.90;;;;;;5035110;28;20177;-75
2021/03/09 04:53:36;;;;;;;70.25;32.50;;;3.40;99.90;;;;;;5034572;28;20220;-75
2021/03/09 04:56:02;;;;;;;70.60;36.38;;;3.40;99.90;;;;;;5034902;28;20643;-75
2021/03/09 04:58:28;;;;;;;62.15;33.80;;;3.30;99.90;;;;;;5035024;28;20182;-76
2021/03/09 05:00:54;;;;;;;64.60;33.33;;;3.40;99.90;;;;;;5034775;28;20170;-75
2021/03/09 05:03:20;;;;;;;73.13;35.33;;;3.30;99.90;;;;;;5034427;28;20771;-75
2021/03/09 05:05:46;;;;;;;68.78;35.85;;;3.30;99.90;;;;;;5034701;28;20172;-76
2021/03/09 05:08:12;;;;;;;66.60;35.50;;;3.30;99.90;;;;;;5034861;28;20174;-75
2021/03/09 05:10:38;;;;;;;67.33;34.23;;;3.30;99.90;;;;;;5034841;28;20901;-76
2021/03/09 05:13:04;;;;;;;68.93;34.93;;;3.20;99.90;;;;;;5034447;28;20316;-75
2021/03/09 05:15:29;;;;;;;60.93;34.23;;;3.30;99.90;;;;;;5034425;28;20281;-75
2021/03/09 05:17:55;;;;;;;65.83;33.80;;;3.30;99.90;;;;;;5034592;28;20417;-76
2021/03/09 05:20:21;;;;;;;58.87;32.80;;;3.30;99.90;;;;;;5034684;28;20413;-76
2021/03/09 05:22:46;;;;;;;66.40;35.80;;;3.40;99.90;;;;;;5034453;28;20198;-75
2021/03/09 05:25:15;;;;;;;68.27;35.90;;;3.40;99.90;;;;;;5034035;28;20218;-76
2021/03/09 05:27:42;;;;;;;65.82;34.35;;;3.40;99.90;;;;;;5034231;28;20175;-75
2021/03/09 05:30:08;;;;;;;67.65;33.35;;;3.40;99.90;;;;;;5032974;28;20190;-76
2021/03/09 05:32:34;;;;;;;63.35;34.47;;;3.30;99.90;;;;;;5034346;28;20183;-76
2021/03/09 05:35:00;;;;;;;70.60;35.60;;;3.30;99.90;;;;;;5033781;28;20248;-75
2021/03/09 05:37:25;;;;;;;73.10;35.40;;;3.20;99.90;;;;;;5034269;28;20180;-75
2021/03/09 05:39:51;;;;;;;65.83;33.53;;;3.30;99.90;;;;;;5032796;28;20178;-76
2021/03/09 05:42:17;;;;;;;57.80;33.47;;;3.20;99.90;;;;;;5034080;28;20249;-75
2021/03/09 05:44:43;;;;;;;62.45;36.65;;;3.20;99.90;;;;;;5033720;28;20190;-76
2021/03/09 05:47:09;;;;;;;61.55;34.22;;;3.20;99.90;;;;;;5034125;28;20179;-75
2021/03/09 05:49:34;;;;;;;58.53;33.20;;;3.20;99.90;;;;;;5033973;28;20174;-76
2021/03/09 05:52:00;;;;;;;63.13;32.00;;;3.10;99.90;;;;;;5033784;28;20178;-75
2021/03/09 05:54:27;;;;;;;57.33;32.00;;;3.20;99.90;;;;;;5033476;28;20199;-76
2021/03/09 05:56:52;;;;;;;65.22;32.60;;;3.10;99.90;;;;;;5033774;28;20209;-76
2021/03/09 05:59:18;;;;;;;57.80;33.10;;;3.10;99.90;;;;;;5032466;28;20217;-75
2021/03/09 06:01:44;;;;;;;59.90;31.98;;;3.10;99.90;;;;;;5033828;28;20281;-76
2021/03/09 06:04:10;;;;;;;52.60;30.00;;;3.10;99.90;;;;;;5033262;28;20251;-76
2021/03/09 06:06:36;;;;;;;56.80;32.03;;;3.10;99.90;;;;;;5033684;28;20627;-77
2021/03/09 06:09:02;;;;;;;57.03;31.50;;;3.10;99.90;;;;;;5033748;28;20193;-77
2021/03/09 06:11:28;;;;;;;59.97;30.70;;;3.10;99.90;;;;;;5033785;28;20428;-75
2021/03/09 06:13:56;;;;;;;50.43;28.83;;;3.10;99.90;;;;;;5033291;28;20194;-76
2021/03/09 06:16:22;;;;;;;53.10;28.52;;;3.20;99.90;;;;;;5033282;28;20742;-76
2021/03/09 06:18:58;;;;;;;59.07;29.37;;;3.20;99.90;;;;;;5033312;28;20193;-75
2021/03/09 06:21:25;;;;;;;51.33;28.35;;;3.20;99.90;;;;;;5033546;28;20197;-76
2021/03/09 06:23:51;;;;;;;54.15;28.90;;;3.20;99.90;;;;;;5031665;28;20202;-76
2021/03/09 06:26:34;;;;;;;54.58;31.60;;;3.20;99.90;;;;;;5032338;28;20187;-77
2021/03/09 06:29:16;;;;;;;50.20;26.98;;;3.10;99.90;;;;;;5033568;28;20166;-75
2021/03/09 06:31:56;;;;;;;51.70;28.50;;;3.20;99.90;;;;;;5033501;28;20168;-76
2021/03/09 06:34:26;;;;;;;50.25;28.23;;;3.20;99.90;;;;;;5032604;28;20217;-77
2021/03/09 06:37:19;;;;;;;54.58;29.15;;;3.20;99.90;;;;;;5033268;28;20174;-76
2021/03/09 06:39:57;;;;;;;47.22;27.05;;;3.20;99.90;;;;;;5033418;28;20174;-75
2021/03/09 06:42:36;;;;;;;54.05;29.35;;;3.10;99.90;;;;;;5033018;28;20615;-75
2021/03/09 06:45:06;;;;;;;47.13;27.08;;;3.10;99.90;;;;;;5032796;28;20655;-76
2021/03/09 06:48:03;;;;;;;52.00;28.85;;;3.20;99.90;;;;;;5033222;28;20165;-77
2021/03/09 06:50:35;;;;;;;56.03;29.35;;;3.20;99.90;;;;;;5019040;28;20178;-76
2021/03/09 06:53:02;;;;;;;52.60;28.85;;;3.30;99.90;;;;;;5032777;28;20659;-76
2021/03/09 06:55:32;;;;;;;49.63;27.85;;;3.30;99.90;;;;;;5032952;28;20198;-76
2021/03/09 06:58:11;;;;;;;52.53;27.52;;;3.30;99.90;;;;;;5033024;28;20210;-76
2021/03/09 07:00:37;;;;;;;43.55;26.90;;;3.30;99.90;;;;;;5032892;28;20174;-76
2021/03/09 07:03:02;;;;;;;50.92;29.48;;;3.20;99.90;;;;;;5032587;28;20213;-76
2021/03/09 07:05:28;;;;;;;59.53;29.30;;;3.20;99.90;;;;;;5032869;28;20202;-76
2021/03/09 07:07:54;;;;;;;50.10;27.47;;;3.30;99.90;;;;;;5032352;28;20232;-76
2021/03/09 07:10:20;;;;;;;44.53;26.90;;;3.40;99.90;;;;;;5032783;28;20166;-76
2021/03/09 07:12:48;;;;;;;52.38;28.08;;;3.50;99.90;;;;;;5034758;28;20171;-75
2021/03/09 07:15:19;;;;;;;48.00;24.80;;;3.50;99.90;;;;;;5035336;28;20206;-75
2021/03/09 07:17:50;;;;;;;51.92;25.88;;;3.60;99.90;;;;;;5036886;28;20197;-76
2021/03/09 07:20:16;;;;;;;48.55;25.10;;;3.50;99.90;;;;;;5036857;28;20261;-75
2021/03/09 07:22:43;;;;;;;48.80;24.30;;;3.40;99.90;;;;;;5036467;28;20730;-76
2021/03/09 07:25:12;;;;;;;47.35;24.95;;;3.40;99.90;;;;;;5036262;28;20432;-76
2021/03/09 07:27:49;;;;;;;41.30;23.67;;;3.40;99.90;;;;;;5035174;28;20180;-76
2021/03/09 07:30:17;;;;;;;48.30;25.33;;;3.40;99.90;;;;;;5036221;28;20175;-76
2021/03/09 07:32:47;;;;;;;38.10;22.15;;;3.40;99.90;;;;;;5034760;28;20170;-77
2021/03/09 07:35:13;;;;;;;45.53;24.80;;;3.50;99.90;;;;;;5035968;28;20343;-77
2021/03/09 07:37:41;;;;;;;39.40;23.42;;;3.50;99.90;;;;;;5036233;28;20805;-77
2021/03/09 07:40:10;;;;;;;41.50;23.70;;;3.50;99.90;;;;;;5036153;28;20194;-78
2021/03/09 07:42:35;;;;;;;41.33;23.55;;;3.50;99.90;;;;;;5036005;28;20303;-77
2021/03/09 07:45:03;;;;;;;46.73;23.87;;;3.50;99.90;;;;;;5034817;28;20316;-77
2021/03/09 07:47:29;;;;;;;41.35;22.95;;;3.50;99.90;;;;;;5036362;28;20474;-76
2021/03/09 07:49:55;;;;;;;46.90;23.87;;;3.50;99.90;;;;;;5036286;28;20174;-76
2021/03/09 07:52:22;;;;;;;41.65;21.98;;;3.50;99.90;;;;;;5034892;28;20273;-76
2021/03/09 07:55:03;;;;;;;37.10;22.75;;;3.50;99.90;;;;;;5017952;28;20198;-77
2021/03/09 07:57:30;;;;;;;36.00;21.60;;;3.40;99.90;;;;;;5034773;28;20189;-76
2021/03/09 08:00:01;;;;;;;42.08;24.05;;;3.40;99.90;;;;;;5035922;28;20174;-77
2021/03/09 08:02:58;;;;;;;41.78;23.55;;;3.50;99.90;;;;;;5036109;28;20194;-76
2021/03/09 08:05:23;;;;;;;45.08;23.13;;;3.50;99.90;;;;;;5035716;28;20592;-77
2021/03/09 08:07:50;;;;;;;37.13;21.37;;;3.50;99.90;;;;;;5035941;28;20240;-76
2021/03/09 08:10:35;;;;;;;37.08;21.58;;;3.50;99.90;;;;;;5034775;28;20213;-77
2021/03/09 08:13:07;;;;;;;36.95;21.27;;;3.50;99.90;;;;;;5034199;28;20646;-77
2021/03/09 08:15:36;;;;;;;45.35;25.23;;;3.50;99.90;;;;;;5035716;28;20280;-77
2021/03/09 08:18:19;;;;;;;37.38;24.80;;;3.60;99.90;;;;;;5034513;28;20545;-78
2021/03/09 08:20:58;;;;;;;40.70;22.40;;;3.60;99.90;;;;;;5035676;28;20186;-77
2021/03/09 08:23:49;;;;;;;40.35;20.90;;;3.70;99.90;;;;;;5032972;28;20206;-78
2021/03/09 08:26:14;;;;;;;43.13;24.75;;;3.70;99.90;;;;;;5028633;28;20226;-78
2021/03/09 08:28:41;;;;;;;44.87;24.20;;;3.70;99.90;;;;;;5035573;28;20210;-77
2021/03/09 08:31:13;;;;;;;40.60;23.20;;;3.70;99.90;;;;;;5034128;28;20174;-77
2021/03/09 08:33:42;;;;;;;41.60;23.63;;;3.70;99.90;;;;;;5034062;28;20194;-79
2021/03/09 08:36:20;;;;;;;40.63;23.52;;;3.80;99.90;;;;;;5035232;28;20174;-78
2021/03/09 08:39:13;;;;;;;39.50;24.10;;;3.80;99.90;;;;;;5034151;28;20184;-77
2021/03/09 08:41:41;;;;;;;43.22;26.38;;;3.80;99.90;;;;;;5033897;28;20197;-78
2021/03/09 08:44:19;;;;;;;49.95;25.15;;;3.90;99.90;;;;;;5033521;28;20208;-77
2021/03/09 08:46:56;;;;;;;41.83;24.60;;;3.90;99.90;;;;;;5033855;28;20177;-78
2021/03/09 08:49:37;;;;;;;47.08;26.15;;;3.90;99.90;;;;;;5034928;28;20192;-77
2021/03/09 08:52:39;;;;;;;54.00;28.13;;;4.00;99.90;;;;;;5033774;28;20615;-78
2021/03/09 08:55:06;;;;;;;48.90;28.23;;;3.80;99.90;;;;;;5010642;28;20219;-77
2021/03/09 08:57:32;;;;;;;45.92;26.65;;;3.80;99.90;;;;;;5034854;28;20176;-78
2021/03/09 09:00:11;;;;;;;47.73;26.13;;;3.90;99.90;;;;;;5033499;28;20188;-76
2021/03/09 09:02:42;;;;;;;48.88;28.60;;;3.90;99.90;;;;;;5034784;28;20206;-77
2021/03/09 09:05:08;;;;;;;48.65;27.63;;;3.80;99.90;;;;;;5034390;28;20217;-77
2021/03/09 09:07:43;;;;;;;54.22;29.95;;;3.80;99.90;;;;;;5034447;28;20181;-77
2021/03/09 09:10:09;;;;;;;47.05;28.10;;;3.90;99.90;;;;;;5034807;28;20249;-77
2021/03/09 09:12:35;;;;;;;46.87;26.90;;;3.90;99.90;;;;;;5034566;28;20205;-78
2021/03/09 09:15:09;;;;;;;47.80;29.05;;;3.90;99.90;;;;;;5034237;28;20205;-77
2021/03/09 09:17:35;;;;;;;52.20;29.33;;;4.00;99.90;;;;;;5034410;28;20273;-78
2021/03/09 09:20:13;;;;;;;48.33;27.92;;;4.00;99.90;;;;;;5034553;28;20181;-79
2021/03/09 09:22:39;;;;;;;46.95;27.90;;;4.10;99.90;;;;;;5034429;28;20538;-79
2021/03/09 09:25:08;;;;;;;54.88;28.85;;;4.00;99.90;;;;;;5032885;28;20192;-77
2021/03/09 09:27:42;;;;;;;54.25;31.20;;;4.00;99.90;;;;;;5034431;28;20212;-78
2021/03/09 09:30:10;;;;;;;50.03;29.02;;;4.00;99.90;;;;;;5034522;28;20173;-78
2021/03/09 09:32:47;;;;;;;49.85;29.38;;;3.90;99.90;;;;;;5033265;28;20186;-79
2021/03/09 09:35:13;;;;;;;43.42;27.20;;;3.80;99.90;;;;;;5032292;28;20240;-78
2021/03/09 09:37:56;;;;;;;40.47;27.17;;;3.50;99.90;;;;;;5034066;28;20685;-78
2021/03/09 09:40:30;;;;;;;43.47;27.10;;;3.40;99.90;;;;;;5034277;28;20493;-77
2021/03/09 09:43:13;;;;;;;44.30;24.17;;;3.40;99.90;;;;;;5032777;28;20208;-78
2021/03/09 09:45:51;;;;;;;47.97;27.92;;;3.30;99.90;;;;;;5033950;28;20639;-79
2021/03/09 09:48:25;;;;;;;38.72;24.83;;;3.30;99.90;;;;;;5034030;28;20178;-78
2021/03/09 09:50:53;;;;;;;45.40;28.40;;;3.20;99.90;;;;;;5033902;28;20166;-78
2021/03/09 09:53:40;;;;;;;46.60;27.90;;;3.20;99.90;;;;;;5033495;28;20189;-78
2021/03/09 09:56:07;;;;;;;44.55;28.33;;;3.10;99.90;;;;;;5033827;28;20593;-78
2021/03/09 09:58:47;;;;;;;43.92;29.45;;;3.10;99.90;;;;;;5032610;28;20196;-78
2021/03/09 10:01:17;;;;;;;49.58;29.73;;;3.10;99.90;;;;;;5033763;28;20260;-78
2021/03/09 10:03:59;;;;;;;44.55;28.30;;;3.10;99.90;;;;;;5033165;28;20215;-78
2021/03/09 10:06:27;;;;;;;46.95;28.90;;;3.10;99.90;;;;;;5032369;28;20201;-79
2021/03/09 10:08:54;;;;;;;53.22;28.17;;;3.10;99.90;;;;;;5032300;28;20186;-78
2021/03/09 10:11:20;;;;;;;45.17;27.90;;;3.20;99.90;;;;;;5032318;28;20199;-78
2021/03/09 10:13:46;;;;;;;45.38;27.20;;;3.20;99.90;;;;;;5033049;28;20213;-78
2021/03/09 10:16:12;;;;;;;49.60;30.27;;;3.30;99.90;;;;;;5032268;28;20170;-78
2021/03/09 10:18:38;;;;;;;43.47;27.35;;;3.20;99.90;;;;;;5033468;28;20201;-76
2021/03/09 10:21:07;;;;;;;50.80;30.00;;;;;;;;;;5033459;28;20176;-79
2021/03/09 10:23:34;;;;;;;43.30;26.45;;;;;;;;;;5032900;28;20566;-78
2021/03/09 10:26:01;;;;;;;43.72;28.00;;;;;;;;;;5033142;28;20220;-78
2021/03/09 10:28:28;;;;;;;44.92;27.92;;;;;;;;;;5031890;28;20185;-79
2021/03/09 10:30:54;;;;;;;48.65;28.85;;;;;;;;;;5033236;28;20178;-79
2021/03/09 10:33:20;;;;;;;49.25;29.00;;;;;;;;;;5032851;28;20202;-79
2021/03/09 10:36:04;;;;;;;50.42;29.02;;;3.50;99.90;;;;;;5033353;28;20193;-79
2021/03/09 10:38:30;;;;;;;50.55;30.35;;;3.70;99.90;;;;;;5033464;28;20580;-78
2021/03/09 10:40:56;;;;;;;48.10;29.35;;;3.70;99.90;;;;;;5033186;28;20173;-78
2021/03/09 10:43:44;;;;;;;47.90;28.80;;;3.70;99.90;;;;;;5031343;28;20213;-79
2021/03/09 10:46:12;;;;;;;48.47;30.60;;;3.70;99.90;;;;;;5029029;28;20424;-78
2021/03/09 10:48:38;;;;;;;49.10;29.50;;;;;;;;;;5031779;28;20177;-79
2021/03/09 10:51:14;;;;;;;50.45;30.25;;;;;;;;;;5032862;28;20166;-79
2021/03/09 10:53:40;;;;;;;57.75;32.03;;;;;;;;;;5032143;28;20285;-79
2021/03/09 10:56:06;;;;;;;53.80;31.13;;;;;;;;;;5032357;28;20736;-79
2021/03/09 10:58:31;;;;;;;53.60;32.65;;;3.80;99.90;;;;;;5031280;28;20425;-79
2021/03/09 11:00:57;;;;;;;59.10;34.87;;;3.90;99.90;;;;;;5031973;28;20174;-76
2021/03/09 11:03:23;;;;;;;64.17;33.53;;;4.00;99.90;;;;;;5030893;28;20695;-76
2021/03/09 11:05:48;;;;;;;64.23;34.40;;;3.90;99.90;;;;;;5032587;28;20205;-77
2021/03/09 11:08:14;;;;;;;65.70;34.67;;;3.90;99.90;;;;;;5031516;28;20170;-77
2021/03/09 11:10:39;;;;;;;59.93;32.73;;;3.90;99.90;;;;;;5032418;28;20517;-78
2021/03/09 11:13:08;;;;;;;65.83;34.00;;;3.90;99.90;;;;;;5032150;28;20183;-77
2021/03/09 11:15:33;;;;;;;62.92;35.13;;;3.80;99.90;;;;;;5030633;28;20263;-78
2021/03/09 11:17:59;;;;;;;65.63;36.03;;;3.90;99.90;;;;;;5032062;28;20639;-79
2021/03/09 11:20:25;;;;;;;56.33;32.63;;;;;;;;;;5031955;28;20231;-78
2021/03/09 11:22:51;;;;;;;57.50;34.17;;;;;;;;;;5031223;28;20190;-76
2021/03/09 11:25:17;;;;;;;62.60;34.58;;;;;;;;;;5032186;28;20420;-76
2021/03/09 11:27:43;;;;;;;66.85;35.60;;;;;;;;;;5032080;28;20568;-77
2021/03/09 11:30:09;;;;;;;63.00;32.78;;;;;;;;;;5031916;28;20236;-77
2021/03/09 11:32:35;;;;;;;79.40;38.72;;;;;;;;;;5032453;28;20174;-77
2021/03/09 11:35:01;;;;;;;64.67;36.17;;;;;;;;;;5030967;28;20757;-76
2021/03/09 11:37:27;;;;;;;61.17;33.80;;;;;;;;;;5031460;28;20427;-78
2021/03/09 11:39:53;;;;;;;57.67;30.95;;;4.50;99.90;;;;;;5032318;28;20449;-77
2021/03/09 11:42:18;;;;;;;65.97;36.53;;;4.60;99.90;;;;;;5031690;28;20285;-78
2021/03/09 11:44:44;;;;;;;68.50;37.43;;;4.60;99.90;;;;;;5029750;28;20301;-77
2021/03/09 11:47:09;;;;;;;66.70;36.20;;;4.60;99.90;;;;;;5032157;28;20181;-77
2021/03/09 11:49:35;;;;;;;70.70;36.70;;;4.70;99.90;;;;;;5031427;28;20172;-77
2021/03/09 11:52:01;;;;;;;69.27;37.50;;;4.70;99.90;;;;;;5031940;28;20261;-77
2021/03/09 11:54:26;;;;;;;69.17;37.77;;;4.70;99.90;;;;;;5031173;28;20205;-76
2021/03/09 11:56:52;;;;;;;65.20;36.40;;;4.70;99.90;;;;;;5031120;28;20702;-79
2021/03/09 11:59:17;;;;;;;74.80;39.33;;;4.60;99.90;;;;;;5034282;28;20276;-77
2021/03/09 12:01:43;;;;;;;69.20;38.13;;;4.90;99.90;;;;;;5035953;28;20205;-77
2021/03/09 12:04:08;;;;;;;69.20;36.47;;;4.80;99.90;;;;;;5034100;28;20252;-77
2021/03/09 12:06:34;;;;;;;69.20;35.97;;;4.80;99.90;;;;;;5035514;28;20213;-76
2021/03/09 12:09:00;;;;;;;70.90;38.27;;;;;;;;;;5035393;28;20612;-78
2021/03/09 12:11:26;;;;;;;68.30;37.35;;;;;;;;;;5034582;28;20177;-77
2021/03/09 12:13:53;;;;;;;74.03;38.58;;;5.20;99.90;;;;;;5034744;28;20192;-77
2021/03/09 12:16:18;;;;;;;72.82;38.45;;;5.30;99.90;;;;;;5035201;28;20584;-76
2021/03/09 12:18:44;;;;;;;71.00;36.60;;;5.20;99.90;;;;;;5033988;28;20224;-77
2021/03/09 12:21:10;;;;;;;73.50;39.70;;;5.20;99.90;;;;;;5033754;28;20642;-77
2021/03/09 12:23:35;;;;;;;81.60;38.57;;;5.20;99.90;;;;;;5035071;28;20509;-77
2021/03/09 12:26:01;;;;;;;68.70;35.00;;;5.20;99.90;;;;;;5034290;28;20631;-78
2021/03/09 12:28:26;;;;;;;71.47;38.87;;;5.20;99.90;;;;;;5034894;28;20180;-76
2021/03/09 12:30:52;;;;;;;76.33;40.70;;;5.20;99.90;;;;;;5034903;28;20176;-76
2021/03/09 12:33:21;;;;;;;69.27;39.40;;;5.20;99.90;;;;;;5034722;28;20562;-77
2021/03/09 12:35:47;;;;;;;69.57;36.28;;;5.40;99.90;;;;;;5034466;28;20198;-77
2021/03/09 12:38:12;;;;;;;75.67;39.10;;;5.30;99.90;;;;;;5034780;28;20172;-78
2021/03/09 12:40:38;;;;;;;70.40;38.77;;;5.40;99.90;;;;;;5033161;28;20514;-76
2021/03/09 12:43:03;;;;;;;65.30;37.73;;;5.30;99.90;;;;;;5034489;28;20297;-76
2021/03/09 12:45:30;;;;;;;64.83;39.23;;;5.30;99.90;;;;;;5034599;28;20211;-76
2021/03/09 12:47:56;;;;;;;65.65;34.88;;;;;;;;;;5033921;28;20237;-76
2021/03/09 12:50:22;;;;;;;65.03;36.28;;;;;;;;;;5034483;28;20170;-77
2021/03/09 12:52:48;;;;;;;63.53;35.42;;;;;;;;;;5034077;28;20192;-78